Time;durP1;ratioP1;P1;durP2;ratioP2;P2;SDS_P1;SDS_P2;PMS_P1;PMS_P2;Temp;Humidity;BMP_temperature;BMP_pressure;BME280_temperature;BME280_humidity;BME280_pressure;Samples;Min_cycle;Max_cycle;Signal;HPM_P1;HPM_P2
2021/05/06 00:29:56;;;;;;;16.77;2.50;;;3.60;99.90;;;;;;6188874;23;20074;-86
2021/05/06 00:33:43;;;;;;;18.55;2.42;;;3.50;99.90;;;;;;6187977;23;20385;-85
2021/05/06 00:36:09;;;;;;;14.30;1.75;;;3.40;99.90;;;;;;6210589;23;20028;-86
2021/05/06 00:41:46;;;;;;;18.02;2.58;;;3.70;99.90;;;;;;6194302;23;20020;-86
2021/05/06 00:54:49;;;;;;;17.33;2.03;;;3.30;99.90;;;;;;6218455;23;20826;-85
2021/05/06 00:57:22;;;;;;;13.77;1.95;;;3.10;99.90;;;;;;6223763;23;20008;-86
2021/05/06 01:12:30;;;;;;;14.40;2.00;;;2.70;99.90;;;;;;6189800;23;20466;-85
2021/05/06 01:14:56;;;;;;;10.02;1.67;;;2.70;99.90;;;;;;6214194;23;20016;-85
2021/05/06 01:17:22;;;;;;;12.00;2.15;;;2.70;99.90;;;;;;6242245;23;20026;-86
2021/05/06 01:19:47;;;;;;;17.70;2.28;;;2.60;99.90;;;;;;6217004;23;20334;-85
2021/05/06 01:22:13;;;;;;;12.45;1.67;;;2.60;99.90;;;;;;6215919;23;20031;-86
2021/05/06 01:24:39;;;;;;;12.70;2.17;;;2.60;99.90;;;;;;6191179;23;20020;-86
2021/05/06 01:27:11;;;;;;;16.80;1.95;;;2.60;99.90;;;;;;6190931;23;20095;-85
2021/05/06 01:29:44;;;;;;;10.90;1.70;;;2.50;99.90;;;;;;6226829;23;20383;-86
2021/05/06 01:34:39;;;;;;;6.22;1.85;;;2.50;99.90;;;;;;6217144;23;20016;-86
2021/05/06 01:37:12;;;;;;;10.68;1.80;;;2.50;99.90;;;;;;6215834;23;20074;-86
2021/05/06 01:42:10;;;;;;;13.43;1.85;;;2.70;99.90;;;;;;6242311;23;20446;-85
2021/05/06 02:00:32;;;;;;;19.48;2.28;;;2.40;99.90;;;;;;6215907;23;20016;-86
2021/05/06 02:03:00;;;;;;;10.40;1.85;;;2.40;99.90;;;;;;6252740;23;20019;-86
2021/05/06 02:05:26;;;;;;;14.73;2.58;;;2.40;99.90;;;;;;6215991;23;20069;-87
2021/05/06 02:07:52;;;;;;;21.95;2.42;;;2.30;99.90;;;;;;6216551;23;20031;-86
2021/05/06 02:10:22;;;;;;;28.67;3.10;;;2.40;99.90;;;;;;6241767;23;20031;-86
2021/05/06 02:12:51;;;;;;;8.57;1.83;;;2.40;99.90;;;;;;6226662;23;20020;-86
2021/05/06 02:15:30;;;;;;;14.60;2.15;;;2.60;99.90;;;;;;6215048;23;20040;-86
2021/05/06 02:17:57;;;;;;;20.05;2.67;;;2.40;99.90;;;;;;6216024;23;20066;-87
2021/05/06 02:20:23;;;;;;;8.93;1.80;;;2.40;99.90;;;;;;6190792;23;20020;-86
2021/05/06 02:22:51;;;;;;;20.60;2.90;;;2.30;99.90;;;;;;6216330;23;20024;-86
2021/05/06 02:25:17;;;;;;;17.58;2.55;;;2.40;99.90;;;;;;6190146;23;20027;-86
2021/05/06 02:27:43;;;;;;;10.48;2.08;;;2.30;99.90;;;;;;6190706;23;20052;-86
2021/05/06 02:30:11;;;;;;;13.95;1.83;;;2.30;99.90;;;;;;6190359;23;20323;-86
2021/05/06 02:32:37;;;;;;;11.68;2.50;;;2.30;99.90;;;;;;6191033;23;20024;-86
2021/05/06 02:35:03;;;;;;;13.43;2.88;;;2.20;99.90;;;;;;6241963;23;20020;-86
2021/05/06 02:37:30;;;;;;;9.68;2.08;;;2.20;99.90;;;;;;6216176;23;20040;-86
2021/05/06 02:39:55;;;;;;;16.60;2.05;;;2.20;99.90;;;;;;6215899;23;20027;-86
2021/05/06 02:42:21;;;;;;;18.95;2.40;;;2.20;99.90;;;;;;6190204;23;20012;-87
2021/05/06 02:44:48;;;;;;;8.98;2.05;;;2.30;99.90;;;;;;6190842;23;20016;-87
2021/05/06 02:47:14;;;;;;;10.18;2.25;;;2.20;99.90;;;;;;6214774;23;20028;-87
2021/05/06 02:49:47;;;;;;;13.43;2.05;;;2.20;99.90;;;;;;6242239;23;20020;-87
2021/05/06 02:53:00;;;;;;;8.20;1.95;;;2.20;99.90;;;;;;6191664;23;20020;-87
2021/05/06 03:02:54;;;;;;;16.63;2.28;;;2.40;99.90;;;;;;6212357;23;20158;-86
2021/05/06 03:05:25;;;;;;;11.05;2.33;;;2.40;99.90;;;;;;6209610;23;20075;-87
2021/05/06 03:08:05;;;;;;;13.80;2.33;;;2.50;99.90;;;;;;6221654;23;20092;-87
2021/05/06 03:23:24;;;;;;;11.25;1.38;;;2.30;99.90;;;;;;6209280;23;20578;-87
2021/05/06 03:25:50;;;;;;;15.82;1.60;;;2.30;99.90;;;;;;6210690;23;20789;-87
2021/05/06 03:28:24;;;;;;;9.50;1.35;;;2.40;99.90;;;;;;6209793;23;20021;-87
2021/05/06 03:41:39;;;;;;;7.53;1.48;;;2.20;99.90;;;;;;6208680;23;20020;-86
2021/05/06 04:17:05;;;;;;;9.13;1.17;;;2.10;99.90;;;;;;6187752;23;20024;-86
2021/05/06 04:37:39;;;;;;;10.77;1.60;;;2.00;99.90;;;;;;6198510;23;20044;-86
2021/05/06 04:45:54;;;;;;;8.38;1.92;;;2.10;99.90;;;;;;6219187;23;20016;-87
2021/05/06 05:07:12;;;;;;;9.10;2.95;;;2.30;99.90;;;;;;6220698;23;20016;-87
2021/05/06 05:10:02;;;;;;;6.25;2.97;;;2.40;99.90;;;;;;6209407;23;20016;-87
2021/05/06 05:25:49;;;;;;;16.55;4.28;;;2.80;99.90;;;;;;6188557;23;20047;-87
2021/05/06 05:28:15;;;;;;;12.43;4.85;;;2.80;99.90;;;;;;6210633;23;20016;-88
2021/05/06 05:30:41;;;;;;;13.35;4.45;;;2.90;99.90;;;;;;6210599;23;20546;-87
2021/05/06 05:33:14;;;;;;;10.65;4.75;;;3.00;99.90;;;;;;6184326;23;20320;-87
2021/05/06 05:40:39;;;;;;;14.93;4.82;;;3.20;99.90;;;;;;6209949;23;20334;-86
2021/05/06 05:56:40;;;;;;;9.82;4.75;;;3.70;99.90;;;;;;6183212;23;20020;-87
2021/05/06 05:59:06;;;;;;;8.05;4.22;;;3.80;99.90;;;;;;6184568;23;20095;-87
2021/05/06 06:01:32;;;;;;;9.27;4.07;;;4.00;99.90;;;;;;6208019;23;20038;-88
2021/05/06 06:03:59;;;;;;;9.18;4.47;;;3.90;99.90;;;;;;6209606;23;20095;-88
2021/05/06 06:06:25;;;;;;;14.40;4.35;;;4.10;99.90;;;;;;6210540;23;20044;-89
2021/05/06 06:08:51;;;;;;;8.15;4.10;;;4.10;99.90;;;;;;6211307;23;20021;-88
2021/05/06 06:11:18;;;;;;;9.23;4.78;;;4.20;99.90;;;;;;6210633;23;20074;-88
2021/05/06 06:13:50;;;;;;;12.15;4.38;;;4.30;99.90;;;;;;6185889;23;20019;-87
2021/05/06 06:16:28;;;;;;;10.00;4.35;;;4.40;99.90;;;;;;6197241;23;20351;-86
2021/05/06 06:18:56;;;;;;;11.75;4.20;;;4.40;99.90;;;;;;6212493;23;20028;-87
2021/05/06 06:23:55;;;;;;;10.98;4.47;;;4.50;99.90;;;;;;6222343;23;20088;-88
2021/05/06 06:26:21;;;;;;;13.07;4.03;;;4.60;99.90;;;;;;6210320;23;20012;-87
2021/05/06 06:28:49;;;;;;;7.93;3.80;;;4.60;99.90;;;;;;6210132;23;20120;-87
2021/05/06 06:31:21;;;;;;;9.82;3.50;;;4.70;99.90;;;;;;6210582;23;20020;-88
2021/05/06 06:33:48;;;;;;;12.80;3.83;;;4.90;99.90;;;;;;6173846;23;20026;-87
2021/05/06 06:36:17;;;;;;;11.65;3.92;;;4.90;99.90;;;;;;6186123;23;20025;-87
2021/05/06 06:38:44;;;;;;;7.55;3.58;;;5.00;99.90;;;;;;6211441;23;20016;-88
2021/05/06 06:41:10;;;;;;;16.60;3.65;;;5.00;99.90;;;;;;6212583;23;20029;-88
2021/05/06 06:43:37;;;;;;;17.45;3.50;;;5.20;99.90;;;;;;6209508;23;20346;-87
2021/05/06 06:46:04;;;;;;;11.50;2.20;;;5.20;99.90;;;;;;6212014;23;20017;-86
2021/05/06 06:48:30;;;;;;;11.45;2.47;;;5.30;99.90;;;;;;6209982;23;20455;-87
2021/05/06 06:50:56;;;;;;;13.65;2.45;;;5.50;99.90;;;;;;6210649;23;20024;-87
2021/05/06 06:53:22;;;;;;;11.55;2.10;;;5.60;99.90;;;;;;6211720;23;20021;-88
2021/05/06 06:55:48;;;;;;;12.05;2.40;;;5.70;99.90;;;;;;6209832;23;20024;-86
2021/05/06 06:58:16;;;;;;;12.57;2.45;;;5.80;99.90;;;;;;6211035;23;20075;-87
2021/05/06 07:00:43;;;;;;;13.73;3.20;;;5.80;99.90;;;;;;6209920;23;20266;-89
2021/05/06 07:03:09;;;;;;;10.20;2.10;;;6.00;99.90;;;;;;6210584;23;20277;-89
2021/05/06 07:05:36;;;;;;;6.65;2.10;;;6.00;99.90;;;;;;6209578;23;20450;-88
2021/05/06 07:08:37;;;;;;;12.25;2.10;;;6.00;99.90;;;;;;6212461;23;20098;-88
2021/05/06 07:11:04;;;;;;;13.75;3.42;;;6.10;99.90;;;;;;6164276;23;20081;-88
2021/05/06 07:13:30;;;;;;;7.95;1.95;;;6.20;99.90;;;;;;6209223;23;20044;-88
2021/05/06 07:15:59;;;;;;;8.05;1.50;;;6.30;99.90;;;;;;6211083;23;20063;-89
2021/05/06 07:18:26;;;;;;;12.50;2.45;;;6.30;99.90;;;;;;6209947;23;20154;-88
2021/05/06 07:20:52;;;;;;;11.57;2.33;;;6.50;99.90;;;;;;6210682;23;20091;-91
2021/05/06 07:23:20;;;;;;;16.48;1.48;;;6.40;99.90;;;;;;6212301;23;20016;-93
2021/05/06 07:25:47;;;;;;;14.38;2.35;;;6.60;99.90;;;;;;6211523;23;20008;-90
2021/05/06 07:28:22;;;;;;;15.18;2.47;;;6.80;99.90;;;;;;6186397;23;20122;-92
2021/05/06 07:30:50;;;;;;;13.80;2.10;;;6.80;99.90;;;;;;6211524;23;20104;-91
2021/05/06 07:33:16;;;;;;;15.00;2.65;;;6.80;99.90;;;;;;6212193;23;20044;-91
2021/05/06 07:35:43;;;;;;;8.48;1.13;;;6.80;99.90;;;;;;6211234;23;20031;-92
2021/05/06 07:38:10;;;;;;;7.10;1.63;;;6.80;99.90;;;;;;6185854;23;20070;-91
2021/05/06 07:40:36;;;;;;;13.57;2.25;;;6.90;99.90;;;;;;6211139;23;20083;-91
2021/05/06 07:43:03;;;;;;;15.73;1.70;;;7.00;99.90;;;;;;6185216;23;20067;-91
2021/05/06 07:45:32;;;;;;;5.78;1.48;;;7.20;99.90;;;;;;6210556;23;20012;-88
2021/05/06 07:47:59;;;;;;;7.75;1.48;;;7.20;99.90;;;;;;6186409;23;20016;-90
2021/05/06 07:50:27;;;;;;;4.03;1.33;;;7.20;99.90;;;;;;6210650;23;20020;-92
2021/05/06 07:53:01;;;;;;;12.60;2.08;;;7.30;99.90;;;;;;6205126;23;20021;-88
2021/05/06 07:55:27;;;;;;;8.82;1.67;;;7.30;99.90;;;;;;6209302;23;20020;-90
2021/05/06 07:57:52;;;;;;;8.57;1.50;;;7.40;99.90;;;;;;6211440;23;20023;-91
2021/05/06 08:00:20;;;;;;;14.05;2.30;;;7.60;99.90;;;;;;6185581;23;20040;-90
2021/05/06 08:02:48;;;;;;;9.07;1.67;;;7.70;99.90;;;;;;6182998;23;20028;-91
2021/05/06 08:05:15;;;;;;;8.77;1.67;;;7.80;99.90;;;;;;6208857;23;20020;-90
2021/05/06 08:07:42;;;;;;;9.25;1.92;;;7.90;99.90;;;;;;6208417;23;20067;-90
2021/05/06 08:10:09;;;;;;;13.45;1.55;;;7.70;99.90;;;;;;6209452;23;20039;-91
2021/05/06 08:12:35;;;;;;;11.15;1.85;;;7.90;99.90;;;;;;6209883;23;20443;-90
2021/05/06 08:15:02;;;;;;;6.72;1.02;;;8.00;99.90;;;;;;6210545;23;20133;-91
2021/05/06 08:17:28;;;;;;;12.85;1.73;;;7.90;99.90;;;;;;6211239;23;20414;-90
2021/05/06 08:19:54;;;;;;;9.90;1.98;;;7.80;99.90;;;;;;6210143;23;20020;-90
2021/05/06 08:22:20;;;;;;;6.15;1.98;;;7.70;99.90;;;;;;6185371;23;20021;-91
2021/05/06 08:24:45;;;;;;;4.25;1.42;;;7.90;99.90;;;;;;6209735;23;20071;-91
2021/05/06 08:27:11;;;;;;;6.03;1.45;;;8.00;99.90;;;;;;6210241;23;20024;-91
2021/05/06 08:29:37;;;;;;;6.40;1.52;;;8.00;99.90;;;;;;6209452;23;20044;-92
2021/05/06 08:32:03;;;;;;;8.07;1.23;;;8.10;99.90;;;;;;6211391;23;20522;-92
2021/05/06 08:34:29;;;;;;;7.72;1.73;;;8.20;99.90;;;;;;6209675;23;20177;-91
2021/05/06 08:36:55;;;;;;;10.25;2.17;;;8.40;99.90;;;;;;6209439;23;20025;-91
2021/05/06 08:39:21;;;;;;;6.63;0.65;;;8.40;99.90;;;;;;6210289;23;20728;-92
2021/05/06 08:41:50;;;;;;;9.35;1.52;;;8.40;99.90;;;;;;6209335;23;20067;-94
2021/05/06 08:44:18;;;;;;;7.47;1.20;;;8.30;99.90;;;;;;6210208;23;20096;-90
2021/05/06 08:49:29;;;;;;;7.78;0.95;;;8.50;99.90;;;;;;6209914;23;20013;-90
2021/05/06 08:51:58;;;;;;;2.85;0.90;;;8.80;99.90;;;;;;6210215;23;20017;-90
2021/05/06 08:54:24;;;;;;;3.20;1.08;;;8.80;99.90;;;;;;6185660;23;20043;-92
2021/05/06 08:56:50;;;;;;;3.75;1.20;;;8.80;99.90;;;;;;6183633;23;20354;-91
2021/05/06 08:59:16;;;;;;;9.43;1.73;;;8.80;99.90;;;;;;6210272;23;20032;-92
2021/05/06 09:01:42;;;;;;;5.50;1.20;;;8.80;99.90;;;;;;6210325;23;20016;-91
2021/05/06 09:04:08;;;;;;;5.97;0.73;;;8.70;99.90;;;;;;6184849;23;20023;-91
2021/05/06 09:06:33;;;;;;;4.63;1.05;;;8.80;99.90;;;;;;6185084;23;20047;-90
2021/05/06 09:09:04;;;;;;;2.63;0.95;;;9.00;99.90;;;;;;6184848;23;20020;-93
2021/05/06 09:11:35;;;;;;;8.82;0.82;;;9.10;99.90;;;;;;6219844;23;20024;-91
2021/05/06 09:14:07;;;;;;;5.85;1.33;;;9.10;99.90;;;;;;6209567;23;20119;-92
2021/05/06 09:16:34;;;;;;;9.63;1.35;;;9.10;99.90;;;;;;6210457;23;20027;-91
2021/05/06 09:19:04;;;;;;;6.55;1.10;;;9.30;99.90;;;;;;6184825;23;20109;-92
2021/05/06 09:21:36;;;;;;;6.85;2.55;;;9.60;99.90;;;;;;6185003;23;20051;-91
2021/05/06 09:26:48;;;;;;;5.50;0.85;;;9.50;99.90;;;;;;6210557;23;20020;-91
2021/05/06 09:29:32;;;;;;;4.18;1.08;;;9.40;99.90;;;;;;6184498;23;20024;-90
2021/05/06 09:32:15;;;;;;;3.78;0.55;;;9.50;99.90;;;;;;6210573;23;20749;-91
2021/05/06 09:34:43;;;;;;;3.45;1.10;;;9.40;99.90;;;;;;6210489;23;20016;-91
2021/05/06 09:37:21;;;;;;;2.45;0.90;;;9.30;99.90;;;;;;6211173;23;20020;-90
2021/05/06 09:40:00;;;;;;;4.78;1.25;;;9.00;99.90;;;;;;6221788;23;20044;-90
2021/05/06 09:42:39;;;;;;;5.22;1.13;;;9.00;99.90;;;;;;6221602;23;20524;-90
2021/05/06 09:45:07;;;;;;;5.65;0.95;;;9.00;99.90;;;;;;6223154;23;20016;-91
2021/05/06 09:47:32;;;;;;;3.42;0.82;;;9.30;99.90;;;;;;6212056;23;20020;-92
2021/05/06 09:49:58;;;;;;;4.32;1.15;;;9.60;99.90;;;;;;6209651;23;20012;-91
2021/05/06 09:52:24;;;;;;;6.38;1.27;;;9.90;99.90;;;;;;6186971;23;20016;-92
2021/05/06 09:54:52;;;;;;;9.70;1.20;;;10.10;99.90;;;;;;6214885;23;20024;-89
2021/05/06 09:57:29;;;;;;;4.07;1.38;;;10.10;99.90;;;;;;6211400;23;20351;-93
2021/05/06 10:00:13;;;;;;;8.98;1.48;;;10.20;99.90;;;;;;6222274;23;20017;-92
2021/05/06 10:02:39;;;;;;;2.60;1.05;;;10.30;99.90;;;;;;6185893;23;20347;-88
2021/05/06 10:05:08;;;;;;;3.63;1.10;;;10.40;99.90;;;;;;6211042;23;20100;-93
2021/05/06 10:07:33;;;;;;;4.18;1.10;;;10.60;99.90;;;;;;6212860;23;20016;-91
2021/05/06 10:10:09;;;;;;;7.43;1.35;;;10.70;99.90;;;;;;6185719;23;20101;-92
2021/05/06 10:12:38;;;;;;;8.73;1.10;;;10.70;99.90;;;;;;6211306;23;20044;-94
2021/05/06 10:15:06;;;;;;;6.47;1.55;;;11.00;99.90;;;;;;6211216;23;20065;-90
2021/05/06 10:17:33;;;;;;;4.88;1.23;;;11.20;99.90;;;;;;6212553;23;20059;-95
2021/05/06 10:19:59;;;;;;;8.90;1.30;;;11.30;99.90;;;;;;6211029;23;20020;-94
2021/05/06 10:22:27;;;;;;;3.45;0.95;;;11.20;99.90;;;;;;6212316;23;20052;-92
2021/05/06 10:24:53;;;;;;;5.38;1.10;;;10.90;99.90;;;;;;6211498;23;20016;-92
2021/05/06 10:27:21;;;;;;;7.20;1.45;;;10.60;99.90;;;;;;6186222;23;20016;-92
2021/05/06 10:29:52;;;;;;;1.88;1.23;;;10.30;99.90;;;;;;6210772;23;20023;-93
2021/05/06 10:32:19;;;;;;;14.65;1.60;;;9.80;99.90;;;;;;6185844;23;20122;-93
2021/05/06 10:34:47;;;;;;;11.05;1.15;;;9.00;99.90;;;;;;6210551;23;20022;-92
2021/05/06 10:37:13;;;;;;;4.78;1.20;;;8.20;99.90;;;;;;6211604;23;20017;-91
2021/05/06 10:39:41;;;;;;;2.67;0.90;;;7.90;99.90;;;;;;6211589;23;20028;-92
2021/05/06 10:42:29;;;;;;;2.15;0.82;;;7.70;99.90;;;;;;6211018;23;20096;-94
2021/05/06 10:45:02;;;;;;;2.33;0.90;;;7.70;99.90;;;;;;6209202;23;20012;-91
2021/05/06 10:47:46;;;;;;;4.75;0.73;;;7.80;99.90;;;;;;6211767;23;20346;-90
2021/05/06 10:50:17;;;;;;;2.55;0.85;;;7.80;99.90;;;;;;6211300;23;20304;-87
2021/05/06 10:52:45;;;;;;;3.40;1.00;;;7.90;99.90;;;;;;6209091;23;20046;-87
2021/05/06 10:55:12;;;;;;;0.70;0.52;;;8.10;99.90;;;;;;6211339;23;20312;-87
2021/05/06 10:57:39;;;;;;;0.50;0.40;;;8.10;99.90;;;;;;6211893;23;20025;-88
2021/05/06 11:00:23;;;;;;;0.82;0.20;;;8.30;99.90;;;;;;6207480;23;20020;-87
2021/05/06 11:02:53;;;;;;;0.57;0.45;;;8.30;99.90;;;;;;6210948;23;20083;-89
2021/05/06 11:05:20;;;;;;;1.08;0.25;;;8.20;99.90;;;;;;6210103;23;20335;-88
2021/05/06 11:08:21;;;;;;;0.40;0.40;;;8.20;99.90;;;;;;6210861;23;20766;-88
2021/05/06 11:10:47;;;;;;;0.73;0.30;;;8.20;99.90;;;;;;6093483;23;20484;-86
2021/05/06 11:13:14;;;;;;;1.05;0.60;;;8.20;99.90;;;;;;6193636;23;20016;-89
2021/05/06 11:15:40;;;;;;;0.65;0.40;;;8.30;99.90;;;;;;6210848;23;20020;-89
2021/05/06 11:18:11;;;;;;;1.15;0.40;;;8.40;99.90;;;;;;6209846;23;20260;-88
2021/05/06 11:20:40;;;;;;;0.77;0.50;;;8.50;99.90;;;;;;6221641;23;20021;-88
2021/05/06 11:23:18;;;;;;;1.05;0.60;;;8.60;99.90;;;;;;6210700;23;20012;-87
2021/05/06 11:25:49;;;;;;;2.25;0.68;;;8.80;99.90;;;;;;6217039;23;20028;-86
2021/05/06 11:28:15;;;;;;;3.20;0.90;;;8.80;99.90;;;;;;6209697;23;20021;-88
2021/05/06 11:30:46;;;;;;;1.02;0.90;;;9.00;99.90;;;;;;6210127;23;20083;-89
2021/05/06 11:33:21;;;;;;;0.60;0.60;;;9.10;99.90;;;;;;6209474;23;20019;-89
2021/05/06 11:35:59;;;;;;;0.50;0.40;;;9.20;99.90;;;;;;6211324;23;20020;-86
2021/05/06 11:38:41;;;;;;;0.88;0.52;;;9.40;99.90;;;;;;6196215;23;20020;-88
2021/05/06 11:41:16;;;;;;;1.65;0.63;;;9.60;99.90;;;;;;6210858;23;20177;-88
2021/05/06 11:44:00;;;;;;;0.88;0.80;;;9.60;99.90;;;;;;6221540;23;20026;-88
2021/05/06 11:46:32;;;;;;;1.77;0.55;;;9.90;99.90;;;;;;6221978;23;20017;-88
2021/05/06 11:49:06;;;;;;;1.55;0.70;;;10.00;99.90;;;;;;6220341;23;20031;-88
2021/05/06 11:51:42;;;;;;;3.75;1.00;;;10.20;99.90;;;;;;6222148;23;20039;-90
2021/05/06 11:54:21;;;;;;;5.03;1.23;;;10.40;99.90;;;;;;6208640;23;20106;-92
2021/05/06 11:56:53;;;;;;;3.00;1.05;;;10.70;99.90;;;;;;6184418;23;20091;-90
2021/05/06 11:59:21;;;;;;;3.63;1.00;;;10.80;99.90;;;;;;6219332;23;20016;-89
2021/05/06 12:01:47;;;;;;;1.88;0.90;;;11.10;99.90;;;;;;6210602;23;20071;-91
2021/05/06 12:04:34;;;;;;;3.78;1.08;;;11.40;99.90;;;;;;6211102;23;20047;-89
2021/05/06 12:07:19;;;;;;;1.25;1.13;;;11.50;99.90;;;;;;6158739;23;20386;-90
2021/05/06 12:09:46;;;;;;;3.15;0.95;;;11.50;99.90;;;;;;6209758;23;20442;-91
2021/05/06 12:12:21;;;;;;;2.80;0.93;;;11.80;99.90;;;;;;6211219;23;20212;-90
2021/05/06 12:14:46;;;;;;;3.10;0.90;;;12.40;99.90;;;;;;6221215;23;20020;-89
2021/05/06 12:17:18;;;;;;;3.13;1.10;;;12.70;99.90;;;;;;6184120;23;20151;-90
2021/05/06 12:19:46;;;;;;;2.53;1.05;;;13.10;99.90;;;;;;6209724;23;20051;-90
2021/05/06 12:22:13;;;;;;;4.30;0.90;;;13.40;99.90;;;;;;6208851;23;20191;-91
2021/05/06 12:24:53;;;;;;;0.40;0.40;;;13.40;99.90;;;;;;6184436;23;20026;-89
2021/05/06 12:27:22;;;;;;;0.85;0.50;;;12.70;98.70;;;;;;6221017;23;20027;-89
2021/05/06 12:29:55;;;;;;;3.10;0.60;;;11.80;99.90;;;;;;6210308;23;20342;-89
2021/05/06 12:32:23;;;;;;;3.25;0.30;;;11.00;99.90;;;;;;6221022;23;20016;-89
2021/05/06 12:34:50;;;;;;;1.08;0.40;;;10.70;99.90;;;;;;6210791;23;20027;-88
2021/05/06 12:37:17;;;;;;;3.33;0.63;;;10.40;99.90;;;;;;6210153;23;20020;-89
2021/05/06 12:39:49;;;;;;;3.50;0.63;;;10.10;99.90;;;;;;6209650;23;20021;-89
2021/05/06 12:42:15;;;;;;;1.77;0.55;;;9.80;99.90;;;;;;6210009;23;20092;-89
2021/05/06 12:44:45;;;;;;;3.33;0.60;;;9.50;99.90;;;;;;6209251;23;20016;-89
2021/05/06 12:47:26;;;;;;;2.03;0.80;;;9.40;99.90;;;;;;6208618;23;20466;-88
2021/05/06 12:50:14;;;;;;;3.67;0.60;;;9.30;99.90;;;;;;6210565;23;20013;-88
2021/05/06 12:52:45;;;;;;;1.05;0.60;;;9.30;99.90;;;;;;6211080;23;20020;-89
2021/05/06 12:55:18;;;;;;;2.60;0.77;;;9.30;99.90;;;;;;6209971;23;20017;-89
2021/05/06 12:57:46;;;;;;;2.55;0.73;;;9.20;99.90;;;;;;6211220;23;20463;-90
2021/05/06 13:00:23;;;;;;;4.45;0.73;;;9.10;99.90;;;;;;6209825;23;20027;-90
2021/05/06 13:02:49;;;;;;;3.55;0.47;;;8.90;99.90;;;;;;6220690;23;20017;-90
2021/05/06 13:05:32;;;;;;;3.92;0.75;;;8.60;99.90;;;;;;6183425;23;20020;-88
2021/05/06 13:07:58;;;;;;;11.52;1.02;;;8.30;99.90;;;;;;6209945;23;20085;-86
2021/05/06 13:10:37;;;;;;;1.83;0.52;;;8.00;99.90;;;;;;6210564;23;20438;-90
2021/05/06 13:13:06;;;;;;;1.63;0.93;;;7.80;99.90;;;;;;6209501;23;20036;-90
2021/05/06 13:15:52;;;;;;;2.45;1.00;;;7.50;99.90;;;;;;6211514;23;20024;-92
2021/05/06 13:18:20;;;;;;;3.65;1.23;;;7.40;99.90;;;;;;6211005;23;20012;-90
2021/05/06 13:20:47;;;;;;;5.85;1.27;;;7.30;99.90;;;;;;6212721;23;20017;-88
2021/05/06 13:23:23;;;;;;;3.40;1.30;;;7.40;99.90;;;;;;6211835;23;20052;-90
2021/05/06 13:25:49;;;;;;;2.97;1.52;;;7.40;99.90;;;;;;6211753;23;20024;-91
2021/05/06 13:28:17;;;;;;;3.35;1.55;;;7.30;99.90;;;;;;6212032;23;20039;-90
2021/05/06 13:30:44;;;;;;;4.28;1.10;;;7.20;99.90;;;;;;6211827;23;20048;-90
2021/05/06 13:33:20;;;;;;;1.83;1.27;;;7.00;99.90;;;;;;6185620;23;20031;-89
2021/05/06 13:36:08;;;;;;;6.65;1.63;;;7.00;99.90;;;;;;6185659;23;20455;-89
2021/05/06 13:39:00;;;;;;;2.58;0.93;;;6.90;99.90;;;;;;6220921;23;20020;-89
2021/05/06 13:41:29;;;;;;;6.32;1.42;;;6.60;99.90;;;;;;6211426;23;20431;-89
2021/05/06 13:43:57;;;;;;;11.80;2.13;;;6.20;99.90;;;;;;6210794;23;20023;-90
2021/05/06 13:46:24;;;;;;;8.30;1.92;;;5.80;99.90;;;;;;6212438;23;20423;-90
2021/05/06 13:48:51;;;;;;;6.88;2.08;;;5.50;99.90;;;;;;6211397;23;20066;-92
2021/05/06 13:51:18;;;;;;;6.88;2.53;;;5.40;99.90;;;;;;6210569;23;20023;-92
2021/05/06 13:53:46;;;;;;;4.85;2.00;;;5.70;99.90;;;;;;6187040;23;20313;-90
2021/05/06 13:56:12;;;;;;;3.50;3.20;;;5.60;99.90;;;;;;6212632;23;20508;-92
2021/05/06 13:58:39;;;;;;;4.28;3.33;;;5.80;99.90;;;;;;6212978;23;20020;-92
2021/05/06 14:01:06;;;;;;;6.97;5.47;;;6.00;99.90;;;;;;6210033;23;20024;-91
2021/05/06 14:03:33;;;;;;;6.03;3.75;;;6.40;99.90;;;;;;6210432;23;20443;-93
2021/05/06 14:06:02;;;;;;;9.02;3.25;;;7.10;99.90;;;;;;6208848;23;20024;-92
2021/05/06 14:08:28;;;;;;;4.35;2.67;;;7.90;99.90;;;;;;6207082;23;20021;-92
2021/05/06 14:10:55;;;;;;;7.30;2.95;;;8.50;99.90;;;;;;6208204;23;20405;-91
2021/05/06 14:13:21;;;;;;;4.28;3.08;;;8.80;99.90;;;;;;6206828;23;20469;-92
2021/05/06 14:15:48;;;;;;;3.22;2.03;;;9.10;99.90;;;;;;6206845;23;20024;-91
2021/05/06 14:18:14;;;;;;;1.38;1.27;;;9.40;99.90;;;;;;6206468;23;20021;-90
2021/05/06 14:20:41;;;;;;;2.00;1.10;;;9.70;99.90;;;;;;6203556;23;20025;-92
2021/05/06 14:23:11;;;;;;;1.98;0.90;;;9.90;99.90;;;;;;6207020;23;20050;-91
2021/05/06 14:25:37;;;;;;;2.70;1.23;;;9.80;99.90;;;;;;6207836;23;20021;-92
2021/05/06 14:28:04;;;;;;;2.15;0.77;;;10.00;99.90;;;;;;6209144;23;20028;-90
2021/05/06 14:30:30;;;;;;;1.00;0.80;;;10.30;99.90;;;;;;6210487;23;20095;-95
2021/05/06 14:32:56;;;;;;;1.42;0.98;;;10.40;99.90;;;;;;6209981;23;20024;-94
2021/05/06 14:35:22;;;;;;;1.75;1.08;;;10.30;99.90;;;;;;6207614;23;20016;-92
2021/05/06 14:37:48;;;;;;;4.88;1.30;;;10.30;99.90;;;;;;6207859;23;20044;-88
2021/05/06 14:40:15;;;;;;;3.30;1.20;;;10.50;99.90;;;;;;6206663;23;20574;-90
2021/05/06 14:42:41;;;;;;;3.25;1.10;;;11.00;99.90;;;;;;6208464;23;20035;-92
2021/05/06 14:45:09;;;;;;;1.23;1.10;;;11.30;99.90;;;;;;6206448;23;20095;-88
2021/05/06 14:47:38;;;;;;;1.88;1.10;;;11.30;99.90;;;;;;6182562;23;20071;-88
2021/05/06 14:50:15;;;;;;;1.08;1.00;;;11.60;99.90;;;;;;6206819;23;20037;-87
2021/05/06 14:52:41;;;;;;;1.88;1.13;;;11.50;99.90;;;;;;6181158;23;20070;-90
2021/05/06 14:55:10;;;;;;;1.70;1.20;;;11.70;99.90;;;;;;6206963;23;20016;-87
2021/05/06 14:57:40;;;;;;;1.08;0.90;;;11.80;99.90;;;;;;6206535;23;20031;-89
2021/05/06 15:00:07;;;;;;;3.33;1.30;;;11.70;99.90;;;;;;6207228;23;20016;-88
2021/05/06 15:02:33;;;;;;;1.77;1.10;;;11.80;99.90;;;;;;6206234;23;20280;-91
2021/05/06 15:04:59;;;;;;;4.30;1.00;;;11.60;99.90;;;;;;6204260;23;20082;-89
2021/05/06 15:07:25;;;;;;;0.77;0.77;;;11.40;99.90;;;;;;6155662;23;20628;-90
2021/05/06 15:09:50;;;;;;;0.90;0.77;;;11.00;99.90;;;;;;6207344;23;20469;-90
2021/05/06 15:12:16;;;;;;;2.78;0.90;;;11.00;99.90;;;;;;6204751;23;20075;-89
2021/05/06 15:14:42;;;;;;;0.93;0.73;;;11.10;99.90;;;;;;6208692;23;20017;-92
2021/05/06 15:17:08;;;;;;;1.38;0.82;;;11.20;99.90;;;;;;6211243;23;20016;-86
2021/05/06 15:19:34;;;;;;;2.28;0.90;;;11.50;99.90;;;;;;6209637;23;20017;-91
2021/05/06 15:22:00;;;;;;;1.60;0.90;;;11.70;99.90;;;;;;6210164;23;20027;-88
2021/05/06 15:24:27;;;;;;;1.95;0.93;;;11.80;99.90;;;;;;6184301;23;20070;-93
2021/05/06 15:26:52;;;;;;;1.48;1.08;;;11.80;99.90;;;;;;6210356;23;20021;-87
2021/05/06 15:29:18;;;;;;;1.90;1.00;;;11.70;99.90;;;;;;6209193;23;20350;-87
2021/05/06 15:31:44;;;;;;;3.13;0.98;;;11.90;99.90;;;;;;6211061;23;20091;-86
2021/05/06 15:34:10;;;;;;;5.15;1.10;;;11.90;99.90;;;;;;6158128;23;20550;-88
2021/05/06 15:36:37;;;;;;;2.58;1.15;;;12.00;99.90;;;;;;6180697;23;20017;-87
2021/05/06 15:39:05;;;;;;;1.00;0.90;;;12.30;99.90;;;;;;6207714;23;20020;-87
2021/05/06 15:41:31;;;;;;;4.43;1.05;;;12.40;99.90;;;;;;6206632;23;20013;-87
2021/05/06 15:43:57;;;;;;;1.55;1.10;;;12.20;99.90;;;;;;6204812;23;20019;-88
2021/05/06 15:46:23;;;;;;;1.33;1.20;;;12.30;99.90;;;;;;6206445;23;20344;-88
2021/05/06 15:48:49;;;;;;;3.22;1.40;;;12.40;99.90;;;;;;6207149;23;20025;-87
2021/05/06 15:51:15;;;;;;;1.88;1.27;;;12.30;99.90;;;;;;6202084;23;20031;-88
2021/05/06 15:53:43;;;;;;;3.55;1.20;;;12.30;99.90;;;;;;6180771;23;20034;-87
2021/05/06 15:56:10;;;;;;;1.40;0.90;;;12.10;99.90;;;;;;6237465;23;20024;-88
2021/05/06 15:58:37;;;;;;;1.73;1.20;;;12.30;99.90;;;;;;6184701;23;20016;-87
2021/05/06 16:01:04;;;;;;;1.55;1.00;;;12.40;99.90;;;;;;6237545;23;20442;-88
2021/05/06 16:03:33;;;;;;;1.88;1.00;;;12.40;99.90;;;;;;6236750;23;20025;-88
2021/05/06 16:05:59;;;;;;;3.80;0.95;;;12.40;99.90;;;;;;6211719;23;20595;-87
2021/05/06 16:08:25;;;;;;;4.22;1.40;;;12.20;99.90;;;;;;6236204;23;20024;-88
2021/05/06 16:10:52;;;;;;;2.55;1.15;;;12.00;99.90;;;;;;6237105;23;20019;-88
2021/05/06 16:13:18;;;;;;;2.78;1.50;;;11.80;99.90;;;;;;6236085;23;20058;-87
2021/05/06 16:15:46;;;;;;;3.25;1.20;;;11.50;99.90;;;;;;6209812;23;20020;-89
2021/05/06 16:18:12;;;;;;;2.20;0.90;;;11.50;99.90;;;;;;6210695;23;20047;-87
2021/05/06 16:20:41;;;;;;;2.60;1.52;;;11.50;99.90;;;;;;6184878;23;20020;-88
2021/05/06 16:23:10;;;;;;;2.53;1.45;;;11.30;99.90;;;;;;6211126;23;20020;-88
2021/05/06 16:25:37;;;;;;;2.72;1.55;;;11.10;99.90;;;;;;6236518;23;20012;-87
2021/05/06 16:28:07;;;;;;;3.47;1.52;;;10.90;99.90;;;;;;6210362;23;20082;-87
2021/05/06 16:30:33;;;;;;;4.55;1.60;;;10.70;99.90;;;;;;6204507;23;20023;-89
2021/05/06 16:33:04;;;;;;;1.67;1.17;;;10.80;99.90;;;;;;6184217;23;20123;-85
2021/05/06 16:35:37;;;;;;;;;;;10.80;99.90;;;;;;6218210;23;20078;-87
2021/05/06 16:38:06;;;;;;;4.18;1.90;;;10.90;99.90;;;;;;6237390;23;20385;-87
2021/05/06 16:43:15;;;;;;;2.35;1.40;;;10.50;99.90;;;;;;6236558;23;20070;-89
2021/05/06 16:45:43;;;;;;;3.83;1.65;;;10.20;99.90;;;;;;6222174;23;20381;-88
2021/05/06 16:48:10;;;;;;;4.45;1.67;;;10.10;99.90;;;;;;6210029;23;20662;-88